ETHF/FRZ METAR and TAF weather

Enter ICAO airport designator
Station Type Date Time Source
ETHF METAR 2021/01/22 06:20 UTC NOAA

ETHF 220620Z 26003KT 9999 -RA FEW014 BKN018 OVC042 06/04 Q0990 WHT


Station Type Date Time Source
ETHF Decoded METAR 2021/01/22 06:20 UTC NOAA

Fritzlar, Germany (ETHF) 51-07N 009-17E 181M
Jan 22, 2021 - 01:20 AM EST / 2021.01.22 0620 UTC
Wind: from the W (260 degrees) at 3 MPH (3 KT):0
Visibility: greater than 7 mile(s):0
Sky conditions: overcast
Weather: light rain
Temperature: 42 F (6 C)
Dew Point: 39 F (4 C)
Relative Humidity: 86%
Pressure (altimeter): 29.23 in. Hg (0990 hPa)
ob: ETHF 220620Z 26003KT 9999 -RA FEW014 BKN018 OVC042 06/04 Q0990 WHT
cycle: 6

Station Type Date Time Source
ETHF TAF 2020/09/07 12:21 UTC NOAA

TAF ETHF 071611Z 0712/0802 VRB02KT 9999 NSW FEW030 PROB30 0723/0802 VRB01KT 5000 MIFG SKC

Example: see airport list